Time;durP1;ratioP1;P1;durP2;ratioP2;P2;SDS_P1;SDS_P2;PMS_P1;PMS_P2;Temp;Humidity;BMP_temperature;BMP_pressure;BME280_temperature;BME280_humidity;BME280_pressure;Samples;Min_cycle;Max_cycle;Signal;HPM_P1;HPM_P2
2022/07/06 00:01:47;;;;;;;7.60;2.33;;;25.00;99.90;;;;;;4837798;29;20029;-73
2022/07/06 00:04:13;;;;;;;9.27;2.80;;;25.00;99.90;;;;;;4855085;29;20390;-75
2022/07/06 00:06:39;;;;;;;5.45;2.28;;;25.00;99.90;;;;;;4851498;29;20557;-73
2022/07/06 00:09:06;;;;;;;11.93;3.00;;;25.00;99.90;;;;;;4847972;29;20042;-75
2022/07/06 00:11:32;;;;;;;7.95;2.70;;;25.00;99.90;;;;;;4847561;29;20053;-74
2022/07/06 00:13:58;;;;;;;12.00;2.70;;;25.00;99.90;;;;;;4851894;29;20069;-74
2022/07/06 00:16:24;;;;;;;9.65;2.67;;;25.10;99.90;;;;;;4846684;29;20044;-74
2022/07/06 00:18:51;;;;;;;10.05;2.47;;;25.10;99.90;;;;;;4854718;29;20084;-75
2022/07/06 00:21:17;;;;;;;10.85;3.00;;;25.10;99.90;;;;;;4847086;29;20098;-73
2022/07/06 00:23:43;;;;;;;5.85;2.20;;;25.10;99.90;;;;;;4847508;29;20128;-73
2022/07/06 00:26:10;;;;;;;5.40;2.40;;;25.00;99.90;;;;;;4848917;29;20049;-78
2022/07/06 00:28:36;;;;;;;8.85;2.75;;;25.10;99.90;;;;;;4841229;29;20037;-74
2022/07/06 00:31:02;;;;;;;6.82;2.47;;;25.10;99.90;;;;;;4831295;29;20073;-74
2022/07/06 00:33:28;;;;;;;8.00;2.20;;;25.00;99.90;;;;;;4838139;29;20493;-76
2022/07/06 00:35:54;;;;;;;8.48;2.67;;;25.00;99.90;;;;;;4857882;29;20486;-76
2022/07/06 00:38:20;;;;;;;5.85;2.38;;;25.00;99.90;;;;;;4852599;29;20185;-73
2022/07/06 00:40:46;;;;;;;6.45;2.10;;;25.00;99.90;;;;;;4848001;29;20613;-74
2022/07/06 00:43:12;;;;;;;8.65;2.53;;;25.10;99.90;;;;;;4846993;29;20132;-77
2022/07/06 00:45:38;;;;;;;5.75;2.22;;;25.00;99.90;;;;;;4846804;29;20037;-74
2022/07/06 00:48:04;;;;;;;8.85;2.15;;;25.00;99.90;;;;;;4847492;29;20047;-72
2022/07/06 00:50:30;;;;;;;8.55;2.35;;;25.00;99.90;;;;;;4849967;29;20026;-73
2022/07/06 00:53:01;;;;;;;4.30;2.10;;;25.00;99.90;;;;;;4849502;29;20093;-78
2022/07/06 00:55:29;;;;;;;8.23;2.70;;;25.00;99.90;;;;;;4858610;29;20495;-73
2022/07/06 00:57:56;;;;;;;10.10;2.83;;;25.10;99.90;;;;;;4852839;29;20034;-78
2022/07/06 01:00:26;;;;;;;5.43;2.30;;;25.00;99.90;;;;;;4847441;29;20038;-72
2022/07/06 01:02:52;;;;;;;6.10;2.10;;;25.10;99.90;;;;;;4850598;29;20131;-74
2022/07/06 01:05:19;;;;;;;5.13;2.30;;;25.10;99.90;;;;;;4845834;29;20033;-76
2022/07/06 01:07:49;;;;;;;6.05;1.95;;;25.10;99.90;;;;;;4838704;29;20446;-72
2022/07/06 01:10:18;;;;;;;7.97;2.60;;;25.10;99.90;;;;;;4839648;29;20061;-72
2022/07/06 01:12:49;;;;;;;3.88;2.25;;;25.10;99.90;;;;;;4862416;29;20130;-74
2022/07/06 01:15:23;;;;;;;6.68;2.13;;;25.00;99.90;;;;;;4843280;29;20033;-73
2022/07/06 01:17:51;;;;;;;10.02;2.17;;;25.00;99.90;;;;;;4833150;29;20030;-76
2022/07/06 01:20:22;;;;;;;6.03;2.20;;;25.00;99.90;;;;;;4848596;29;20038;-74
2022/07/06 01:22:50;;;;;;;7.93;2.50;;;25.10;99.90;;;;;;4850315;29;20389;-78
2022/07/06 01:25:18;;;;;;;7.85;2.45;;;25.10;99.90;;;;;;4819128;29;20179;-73
2022/07/06 01:27:44;;;;;;;7.78;2.38;;;25.20;99.90;;;;;;4845661;29;20033;-72
2022/07/06 01:30:17;;;;;;;7.70;2.10;;;25.20;99.90;;;;;;4828890;29;20143;-72
2022/07/06 01:32:44;;;;;;;5.25;2.15;;;25.10;99.90;;;;;;4851182;29;20101;-74
2022/07/06 01:35:14;;;;;;;6.13;2.33;;;25.10;99.90;;;;;;4842080;29;20037;-72
2022/07/06 01:37:40;;;;;;;6.43;2.30;;;25.20;99.90;;;;;;4852503;29;20033;-76
2022/07/06 01:40:09;;;;;;;7.88;2.22;;;25.20;99.90;;;;;;4848599;29;20033;-73
2022/07/06 01:42:37;;;;;;;7.38;2.45;;;25.30;99.90;;;;;;4846777;29;20503;-73
2022/07/06 01:45:05;;;;;;;7.00;1.90;;;25.30;99.90;;;;;;4846443;29;20037;-73
2022/07/06 01:47:33;;;;;;;7.70;2.22;;;25.30;99.90;;;;;;4845783;29;20034;-75
2022/07/06 01:50:04;;;;;;;9.60;2.45;;;25.40;99.90;;;;;;4846482;29;20069;-72
2022/07/06 01:52:31;;;;;;;6.63;2.17;;;25.40;99.90;;;;;;4846502;29;20540;-75
2022/07/06 01:54:57;;;;;;;4.72;2.08;;;25.40;99.90;;;;;;4850043;29;20034;-74
2022/07/06 01:57:24;;;;;;;5.82;2.30;;;25.50;99.90;;;;;;4844290;29;20071;-73
2022/07/06 01:59:52;;;;;;;7.20;2.20;;;25.50;99.90;;;;;;4852642;29;20033;-76
2022/07/06 02:02:18;;;;;;;5.65;2.30;;;25.60;99.90;;;;;;4851937;29;20034;-73
2022/07/06 02:04:44;;;;;;;9.77;2.03;;;25.60;99.90;;;;;;4844410;29;20038;-76
2022/07/06 02:07:10;;;;;;;5.60;1.98;;;25.60;99.90;;;;;;4835733;29;20072;-76
2022/07/06 02:09:36;;;;;;;7.95;2.28;;;25.70;99.90;;;;;;4849196;29;20397;-73
2022/07/06 02:12:03;;;;;;;5.60;2.40;;;25.80;99.90;;;;;;4837333;29;20034;-72
2022/07/06 02:14:29;;;;;;;11.45;2.40;;;25.80;99.90;;;;;;4846374;29;20436;-76
2022/07/06 02:16:54;;;;;;;5.07;1.80;;;25.80;99.90;;;;;;4854701;29;20034;-75
2022/07/06 02:19:20;;;;;;;7.18;2.03;;;25.80;99.90;;;;;;4847977;29;20551;-73
2022/07/06 02:21:46;;;;;;;12.75;2.42;;;25.80;99.90;;;;;;4829248;29;20629;-74
2022/07/06 02:24:12;;;;;;;4.80;1.80;;;25.60;99.90;;;;;;4850502;29;20064;-73
2022/07/06 02:26:39;;;;;;;4.93;2.00;;;25.60;99.90;;;;;;4844646;29;20042;-75
2022/07/06 02:29:05;;;;;;;6.05;1.83;;;25.80;99.90;;;;;;4845600;29;20375;-73
2022/07/06 02:31:31;;;;;;;8.27;2.13;;;25.90;99.90;;;;;;4846288;29;20059;-72
2022/07/06 02:33:57;;;;;;;8.95;2.40;;;25.80;99.90;;;;;;4849632;29;20033;-73
2022/07/06 02:36:23;;;;;;;8.00;2.60;;;25.80;99.90;;;;;;4845662;29;20045;-76
2022/07/06 02:38:48;;;;;;;10.93;2.55;;;25.70;99.90;;;;;;4844432;29;20148;-75
2022/07/06 02:41:14;;;;;;;9.65;2.67;;;25.60;99.90;;;;;;4859492;29;20042;-72
2022/07/06 02:43:40;;;;;;;7.90;2.35;;;25.50;99.90;;;;;;4849997;29;20541;-72
2022/07/06 02:46:08;;;;;;;7.95;2.95;;;25.10;99.90;;;;;;4848522;29;20102;-74
2022/07/06 02:48:33;;;;;;;7.82;2.50;;;25.00;99.90;;;;;;4843362;29;20441;-73
2022/07/06 02:50:59;;;;;;;11.35;3.03;;;24.90;99.90;;;;;;4847506;29;20082;-72
2022/07/06 02:53:25;;;;;;;6.40;2.35;;;25.00;99.90;;;;;;4845010;29;20041;-72
2022/07/06 02:55:51;;;;;;;6.63;2.60;;;25.00;99.90;;;;;;4850050;29;20121;-74
2022/07/06 02:58:17;;;;;;;14.77;2.72;;;25.00;99.90;;;;;;4844659;29;20521;-76
2022/07/06 03:00:43;;;;;;;11.82;2.78;;;24.90;99.90;;;;;;4846915;29;20344;-72
2022/07/06 03:03:10;;;;;;;11.20;2.58;;;24.80;99.90;;;;;;4843373;29;20402;-73
2022/07/06 03:05:37;;;;;;;9.30;3.08;;;24.80;99.90;;;;;;4834631;29;20034;-76
2022/07/06 03:08:03;;;;;;;11.38;2.67;;;24.80;99.90;;;;;;4849819;29;20465;-72
2022/07/06 03:10:30;;;;;;;12.40;3.08;;;24.80;99.90;;;;;;4843240;29;20044;-73
2022/07/06 03:12:57;;;;;;;8.25;2.70;;;24.70;99.90;;;;;;4853558;29;20142;-75
2022/07/06 03:15:26;;;;;;;8.45;2.63;;;24.70;99.90;;;;;;4850944;29;20049;-72
2022/07/06 03:17:51;;;;;;;9.75;2.85;;;24.60;99.90;;;;;;4845530;29;20049;-74
2022/07/06 03:20:17;;;;;;;11.18;2.90;;;24.30;99.90;;;;;;4847892;29;20037;-72
2022/07/06 03:22:45;;;;;;;9.80;2.92;;;24.00;99.90;;;;;;4852020;29;20034;-77
2022/07/06 03:25:10;;;;;;;10.68;3.38;;;23.70;99.90;;;;;;4857533;29;20054;-74
2022/07/06 03:27:36;;;;;;;12.35;2.97;;;23.30;99.90;;;;;;4852459;29;20080;-73
2022/07/06 03:30:03;;;;;;;8.90;3.60;;;23.10;99.90;;;;;;4849369;29;20053;-72
2022/07/06 03:32:29;;;;;;;7.93;2.75;;;23.10;99.90;;;;;;4847836;29;20305;-76
2022/07/06 03:34:56;;;;;;;14.43;3.22;;;23.10;99.90;;;;;;4854543;29;20065;-75
2022/07/06 03:37:22;;;;;;;8.57;3.00;;;23.00;99.90;;;;;;4848822;29;20037;-72
2022/07/06 03:39:48;;;;;;;8.52;2.83;;;23.00;99.90;;;;;;4850116;29;20030;-76
2022/07/06 03:42:13;;;;;;;7.18;2.78;;;23.10;99.90;;;;;;4850855;29;20033;-77
2022/07/06 03:44:40;;;;;;;10.40;3.10;;;23.10;99.90;;;;;;4851138;29;20073;-75
2022/07/06 03:47:06;;;;;;;7.20;2.55;;;23.20;99.90;;;;;;4843200;29;20649;-73
2022/07/06 03:49:34;;;;;;;13.13;2.60;;;23.40;99.90;;;;;;4852615;29;20045;-76
2022/07/06 03:51:59;;;;;;;7.78;2.90;;;23.50;99.90;;;;;;4850027;29;20064;-74
2022/07/06 03:54:25;;;;;;;8.70;2.70;;;23.70;99.90;;;;;;4851958;29;20359;-74
2022/07/06 03:56:52;;;;;;;10.38;2.70;;;23.80;99.90;;;;;;4847343;29;20034;-73
2022/07/06 03:59:18;;;;;;;10.18;2.58;;;23.80;99.90;;;;;;4847965;29;20034;-76
2022/07/06 04:01:44;;;;;;;11.13;2.60;;;23.90;99.90;;;;;;4849231;29;20186;-74
2022/07/06 04:04:09;;;;;;;6.43;2.53;;;24.00;99.90;;;;;;4846257;29;20038;-72
2022/07/06 04:06:35;;;;;;;11.02;2.70;;;24.00;99.90;;;;;;4853082;29;20049;-73
2022/07/06 04:09:02;;;;;;;11.27;3.10;;;24.00;99.90;;;;;;4846903;29;20346;-77
2022/07/06 04:11:27;;;;;;;6.88;2.63;;;24.10;99.90;;;;;;4848648;29;20041;-73
2022/07/06 04:13:54;;;;;;;11.40;2.92;;;24.10;99.90;;;;;;4851192;29;20046;-74
2022/07/06 04:16:20;;;;;;;7.82;3.35;;;24.10;99.90;;;;;;4850126;29;20398;-73
2022/07/06 04:18:46;;;;;;;7.38;2.45;;;24.00;99.90;;;;;;4850643;29;20054;-75
2022/07/06 04:21:11;;;;;;;8.82;2.90;;;24.00;99.90;;;;;;4851387;29;20042;-74
2022/07/06 04:23:37;;;;;;;10.60;2.90;;;24.00;99.90;;;;;;4845446;29;20038;-74
2022/07/06 04:26:03;;;;;;;9.30;2.92;;;24.10;99.90;;;;;;4849443;29;20045;-73
2022/07/06 04:28:29;;;;;;;6.97;2.88;;;24.10;99.90;;;;;;4845799;29;20057;-73
2022/07/06 04:30:55;;;;;;;16.67;3.75;;;24.10;99.90;;;;;;4849667;29;20382;-75
2022/07/06 04:33:21;;;;;;;11.60;3.05;;;24.10;99.90;;;;;;4848441;29;20108;-75
2022/07/06 04:35:46;;;;;;;9.88;3.08;;;24.20;99.90;;;;;;4847639;29;20037;-72
2022/07/06 04:38:12;;;;;;;6.90;3.13;;;24.20;99.90;;;;;;4847082;29;20413;-74
2022/07/06 04:40:38;;;;;;;8.60;2.53;;;24.20;99.90;;;;;;4849228;29;20041;-75
2022/07/06 04:43:04;;;;;;;9.88;2.90;;;24.20;99.90;;;;;;4846916;29;20037;-76
2022/07/06 04:45:30;;;;;;;9.68;3.10;;;24.20;99.90;;;;;;4849616;29;20038;-72
2022/07/06 04:47:56;;;;;;;8.32;3.28;;;24.30;99.90;;;;;;4844705;29;20038;-73
2022/07/06 04:50:23;;;;;;;12.07;2.85;;;24.10;99.90;;;;;;4851564;29;20052;-73
2022/07/06 04:52:48;;;;;;;9.10;2.83;;;24.10;99.90;;;;;;4846932;29;20030;-78
2022/07/06 04:55:15;;;;;;;9.57;3.28;;;24.10;99.90;;;;;;4847239;29;20057;-73
2022/07/06 04:57:42;;;;;;;7.85;3.15;;;24.20;99.90;;;;;;4846744;29;20431;-74
2022/07/06 05:00:08;;;;;;;9.60;3.45;;;24.20;99.90;;;;;;4848193;29;20062;-76
2022/07/06 05:02:34;;;;;;;10.45;3.38;;;24.20;99.90;;;;;;4848160;29;20065;-72
2022/07/06 05:05:00;;;;;;;14.10;3.20;;;24.20;99.90;;;;;;4849031;29;20618;-71
2022/07/06 05:07:30;;;;;;;12.38;3.00;;;24.30;99.90;;;;;;4851715;29;20455;-73
2022/07/06 05:09:55;;;;;;;7.45;3.00;;;24.30;99.90;;;;;;4851857;29;20037;-72
2022/07/06 05:12:21;;;;;;;9.07;3.38;;;24.30;99.90;;;;;;4837874;29;20060;-75
2022/07/06 05:14:47;;;;;;;9.85;3.20;;;24.30;99.90;;;;;;4848967;29;20042;-74
2022/07/06 05:17:13;;;;;;;8.10;2.88;;;24.40;99.90;;;;;;4849451;29;20045;-71
2022/07/06 05:19:38;;;;;;;10.07;2.65;;;24.50;99.90;;;;;;4852285;29;20782;-73
2022/07/06 05:22:04;;;;;;;8.43;2.63;;;24.50;99.90;;;;;;4849753;29;20045;-72
2022/07/06 05:24:30;;;;;;;13.82;3.33;;;24.50;99.90;;;;;;4855332;29;20041;-74
2022/07/06 05:26:56;;;;;;;12.38;4.43;;;24.60;99.90;;;;;;4851877;29;20042;-76
2022/07/06 05:29:23;;;;;;;11.57;3.72;;;24.60;99.90;;;;;;4847314;29;20058;-72
2022/07/06 05:31:50;;;;;;;15.23;3.72;;;24.50;99.90;;;;;;4845471;29;20386;-72
2022/07/06 05:34:15;;;;;;;13.27;3.47;;;24.60;99.90;;;;;;4851147;29;20049;-75
2022/07/06 05:36:41;;;;;;;12.10;3.85;;;24.30;99.90;;;;;;4844850;29;20066;-75
2022/07/06 05:39:07;;;;;;;16.05;4.25;;;23.50;99.90;;;;;;4848260;29;20556;-73
2022/07/06 05:41:33;;;;;;;17.90;4.90;;;22.80;99.90;;;;;;4846979;29;20034;-73
2022/07/06 05:43:58;;;;;;;11.23;4.13;;;22.40;99.90;;;;;;4843811;29;20048;-74
2022/07/06 05:46:24;;;;;;;15.98;4.20;;;22.10;99.90;;;;;;4846469;29;20063;-77
2022/07/06 05:51:34;;;;;;;14.38;3.97;;;21.90;99.90;;;;;;4846024;29;20084;-74
2022/07/06 05:54:00;;;;;;;11.25;4.20;;;21.90;99.90;;;;;;4852185;29;20061;-74
2022/07/06 05:56:26;;;;;;;12.43;3.90;;;21.90;99.90;;;;;;4846691;29;20662;-74
2022/07/06 05:58:51;;;;;;;9.60;3.75;;;21.80;99.90;;;;;;4850012;29;20479;-76
2022/07/06 06:01:17;;;;;;;9.80;3.47;;;21.70;99.90;;;;;;4846077;29;20097;-74
2022/07/06 06:03:44;;;;;;;9.68;4.07;;;21.80;99.90;;;;;;4852601;29;20047;-73
2022/07/06 06:06:10;;;;;;;8.32;3.88;;;21.80;99.90;;;;;;4847416;29;20064;-74
2022/07/06 06:08:37;;;;;;;11.73;4.38;;;21.80;99.90;;;;;;4847265;29;20061;-76
2022/07/06 06:11:02;;;;;;;13.00;4.47;;;22.00;99.90;;;;;;4848669;29;20061;-74
2022/07/06 06:13:28;;;;;;;8.98;3.75;;;22.00;99.90;;;;;;4849940;29;20064;-74
2022/07/06 06:15:54;;;;;;;11.90;4.00;;;22.10;99.90;;;;;;4853447;29;20033;-74
2022/07/06 06:18:19;;;;;;;10.02;3.80;;;22.20;99.90;;;;;;4847998;29;20066;-75
2022/07/06 06:20:46;;;;;;;12.48;5.72;;;22.50;99.90;;;;;;4846560;29;20490;-75
2022/07/06 06:23:12;;;;;;;15.05;4.03;;;22.80;99.90;;;;;;4848047;29;20065;-74
2022/07/06 06:25:38;;;;;;;11.35;4.10;;;23.30;99.90;;;;;;4843535;29;20068;-74
2022/07/06 06:28:09;;;;;;;14.60;3.22;;;23.70;99.90;;;;;;4829622;29;20093;-74
2022/07/06 06:30:37;;;;;;;7.63;3.15;;;24.10;99.90;;;;;;4849328;29;20045;-74
2022/07/06 06:33:18;;;;;;;13.90;2.60;;;24.50;99.90;;;;;;4852842;29;20033;-74
2022/07/06 06:35:50;;;;;;;9.02;3.10;;;24.80;99.90;;;;;;4851730;29;20351;-74
2022/07/06 06:38:17;;;;;;;10.93;4.18;;;25.10;99.90;;;;;;4849856;29;20033;-76
2022/07/06 06:40:43;;;;;;;10.40;3.67;;;25.20;99.90;;;;;;4847084;29;20038;-74
2022/07/06 06:43:09;;;;;;;12.32;3.53;;;25.30;99.90;;;;;;4847815;29;20042;-74
2022/07/06 06:45:35;;;;;;;10.68;4.10;;;25.30;99.90;;;;;;4851260;29;20038;-76
2022/07/06 06:48:01;;;;;;;12.70;4.22;;;25.20;99.90;;;;;;4854212;29;20041;-74
2022/07/06 06:50:27;;;;;;;11.10;4.25;;;25.20;99.90;;;;;;4849214;29;20347;-75
2022/07/06 06:52:53;;;;;;;10.52;4.20;;;25.20;99.90;;;;;;4854850;29;20037;-75
2022/07/06 06:55:19;;;;;;;14.70;4.43;;;25.20;99.90;;;;;;4847948;29;20045;-78
2022/07/06 06:57:45;;;;;;;14.35;4.60;;;25.30;99.90;;;;;;4854985;29;20049;-77
2022/07/06 07:00:12;;;;;;;15.00;4.38;;;25.30;99.90;;;;;;4844432;29;20034;-74
2022/07/06 07:02:38;;;;;;;9.23;3.92;;;25.30;99.90;;;;;;4862740;29;20029;-78
2022/07/06 07:05:05;;;;;;;10.63;4.05;;;25.40;99.90;;;;;;4858562;29;20069;-76
2022/07/06 07:07:31;;;;;;;11.27;4.53;;;25.30;99.90;;;;;;4851873;29;20041;-72
2022/07/06 07:09:57;;;;;;;9.68;3.40;;;25.40;99.90;;;;;;4846761;29;20476;-76
2022/07/06 07:12:23;;;;;;;11.73;3.70;;;25.30;99.90;;;;;;4851874;29;20069;-78
2022/07/06 07:14:49;;;;;;;13.68;4.28;;;25.30;99.90;;;;;;4855533;29;20041;-74
2022/07/06 07:17:15;;;;;;;12.05;3.92;;;25.30;99.90;;;;;;4853342;29;20516;-76
2022/07/06 07:19:41;;;;;;;8.10;3.53;;;25.30;99.90;;;;;;4854097;29;20033;-77
2022/07/06 07:22:07;;;;;;;11.48;4.10;;;25.30;99.90;;;;;;4853031;29;20076;-78
2022/07/06 07:24:33;;;;;;;10.00;3.88;;;25.40;99.90;;;;;;4840004;29;20069;-74
2022/07/06 07:26:59;;;;;;;13.13;3.85;;;25.50;99.90;;;;;;4855833;29;20049;-75
2022/07/06 07:29:26;;;;;;;14.75;3.75;;;25.60;99.90;;;;;;4847377;29;20117;-74
2022/07/06 07:31:52;;;;;;;8.93;3.13;;;25.60;99.90;;;;;;4849626;29;20070;-73
2022/07/06 07:34:18;;;;;;;12.20;3.83;;;25.60;99.90;;;;;;4839422;29;20109;-74
2022/07/06 07:36:45;;;;;;;8.52;3.45;;;25.60;99.90;;;;;;4859450;29;20507;-77
2022/07/06 07:39:11;;;;;;;10.40;3.38;;;25.70;99.90;;;;;;4855855;29;20040;-73
2022/07/06 07:41:37;;;;;;;7.93;3.42;;;25.80;99.90;;;;;;4849085;29;20038;-74
2022/07/06 07:44:02;;;;;;;10.43;3.80;;;25.90;99.90;;;;;;4850044;29;20057;-74
2022/07/06 07:46:28;;;;;;;20.30;13.27;;;26.00;99.90;;;;;;4854213;29;20038;-77
2022/07/06 07:48:54;;;;;;;10.25;3.30;;;26.10;99.90;;;;;;4850092;29;20041;-77
2022/07/06 07:51:20;;;;;;;17.65;12.60;;;26.20;99.90;;;;;;4840212;29;20515;-74
2022/07/06 07:53:46;;;;;;;12.07;3.45;;;26.40;99.90;;;;;;4853902;29;20586;-73
2022/07/06 07:56:12;;;;;;;10.15;3.28;;;26.50;99.90;;;;;;4852476;29;20441;-75
2022/07/06 07:58:38;;;;;;;11.20;3.00;;;26.60;99.90;;;;;;4846361;29;20118;-78
2022/07/06 08:01:04;;;;;;;6.22;2.53;;;26.70;99.90;;;;;;4851965;29;20145;-76
2022/07/06 08:03:31;;;;;;;10.13;2.97;;;26.80;99.90;;;;;;4851861;29;20042;-76
2022/07/06 08:05:57;;;;;;;10.07;3.30;;;26.90;99.90;;;;;;4853652;29;20089;-75
2022/07/06 08:08:23;;;;;;;8.80;2.90;;;27.00;99.90;;;;;;4853656;29;20100;-76
2022/07/06 08:10:49;;;;;;;11.00;3.65;;;27.10;99.90;;;;;;4835633;29;20474;-74
2022/07/06 08:13:15;;;;;;;9.38;3.53;;;27.10;99.90;;;;;;4856386;29;20058;-75
2022/07/06 08:15:42;;;;;;;9.93;3.70;;;27.20;99.90;;;;;;4852361;29;20034;-76
2022/07/06 08:18:09;;;;;;;12.32;4.45;;;27.30;99.90;;;;;;4851438;29;20037;-74
2022/07/06 08:20:35;;;;;;;8.45;3.60;;;27.30;99.90;;;;;;4854028;29;20050;-75
2022/07/06 08:23:01;;;;;;;10.55;3.38;;;27.30;99.90;;;;;;4848290;29;20110;-77
2022/07/06 08:25:27;;;;;;;9.00;3.47;;;27.30;99.90;;;;;;4850647;29;20510;-75
2022/07/06 08:27:52;;;;;;;12.98;5.05;;;27.30;99.90;;;;;;4857698;29;20044;-74
2022/07/06 08:30:18;;;;;;;10.85;4.68;;;27.40;99.90;;;;;;4850812;29;20509;-74
2022/07/06 08:32:44;;;;;;;18.45;5.65;;;27.30;99.90;;;;;;4848478;29;20057;-76
2022/07/06 08:35:10;;;;;;;18.02;5.88;;;27.50;99.90;;;;;;4848374;29;20036;-76
2022/07/06 08:37:36;;;;;;;12.70;4.93;;;27.50;99.90;;;;;;4848979;29;20477;-76
2022/07/06 08:40:03;;;;;;;13.48;5.20;;;27.60;99.90;;;;;;4850706;29;20060;-75
2022/07/06 08:42:34;;;;;;;14.23;4.70;;;27.60;99.90;;;;;;4859881;29;20414;-77
2022/07/06 08:45:03;;;;;;;15.02;5.38;;;27.40;99.90;;;;;;4851482;29;20049;-77
2022/07/06 08:47:30;;;;;;;11.88;4.82;;;27.40;99.90;;;;;;4848045;29;20041;-75
2022/07/06 08:49:56;;;;;;;14.75;5.65;;;27.40;99.90;;;;;;4850799;29;20061;-76
2022/07/06 08:52:25;;;;;;;18.02;5.80;;;27.40;99.90;;;;;;4848708;29;20056;-75
2022/07/06 08:54:52;;;;;;;15.70;5.72;;;27.40;99.90;;;;;;4830583;29;20081;-77
2022/07/06 08:57:18;;;;;;;18.73;5.18;;;27.30;99.90;;;;;;4849010;29;20046;-75
2022/07/06 08:59:43;;;;;;;11.35;4.70;;;27.30;99.90;;;;;;4849421;29;20589;-74
2022/07/06 09:02:10;;;;;;;11.23;4.70;;;27.20;99.90;;;;;;4851554;29;20121;-75
2022/07/06 09:04:37;;;;;;;12.98;4.53;;;27.20;99.90;;;;;;4851392;29;20101;-75
2022/07/06 09:07:04;;;;;;;18.13;6.00;;;27.20;99.90;;;;;;4850488;29;20399;-74
2022/07/06 09:09:30;;;;;;;14.80;6.03;;;27.40;99.90;;;;;;4847416;29;20037;-76
2022/07/06 09:11:57;;;;;;;13.60;4.70;;;27.50;99.90;;;;;;4847712;29;20119;-76
2022/07/06 09:14:23;;;;;;;16.13;5.32;;;27.60;99.90;;;;;;4851608;29;20122;-76
2022/07/06 09:17:05;;;;;;;14.60;4.40;;;27.80;99.90;;;;;;4856544;29;20153;-77
2022/07/06 09:19:32;;;;;;;15.88;4.32;;;27.90;99.90;;;;;;4848771;29;20033;-75
2022/07/06 09:21:58;;;;;;;13.80;4.28;;;28.00;99.90;;;;;;4849696;29;20040;-75
2022/07/06 09:24:26;;;;;;;26.05;5.25;;;28.10;99.90;;;;;;4859832;29;20045;-74
2022/07/06 09:26:55;;;;;;;12.50;4.32;;;28.20;99.90;;;;;;4854893;29;20097;-76
2022/07/06 09:29:32;;;;;;;14.02;4.10;;;28.30;99.90;;;;;;4850943;29;20493;-76
2022/07/06 09:32:03;;;;;;;7.30;4.03;;;28.30;99.90;;;;;;4852877;29;20037;-76
2022/07/06 09:34:46;;;;;;;11.23;4.17;;;28.20;99.90;;;;;;4856975;29;20053;-75
2022/07/06 09:37:13;;;;;;;14.93;4.20;;;28.10;99.90;;;;;;4853397;29;20041;-75
2022/07/06 09:39:40;;;;;;;14.50;4.05;;;28.00;99.90;;;;;;4865556;29;20044;-77
2022/07/06 09:42:10;;;;;;;11.00;3.30;;;27.90;99.90;;;;;;4854524;29;20065;-75
2022/07/06 09:44:38;;;;;;;14.45;3.15;;;27.90;99.90;;;;;;4848741;29;20387;-74
2022/07/06 09:47:10;;;;;;;9.43;2.70;;;27.80;99.90;;;;;;4825008;29;20049;-80
2022/07/06 09:49:37;;;;;;;7.35;2.58;;;27.90;99.90;;;;;;4845347;29;20037;-75
2022/07/06 09:52:06;;;;;;;11.00;2.97;;;28.10;99.90;;;;;;4845568;29;20052;-78
2022/07/06 09:54:36;;;;;;;6.57;2.55;;;28.30;99.90;;;;;;4848895;29;20415;-82
2022/07/06 09:57:04;;;;;;;8.48;2.72;;;28.40;99.90;;;;;;4848561;29;20042;-77
2022/07/06 09:59:33;;;;;;;7.88;2.80;;;28.60;99.90;;;;;;4844445;29;20085;-80
2022/07/06 10:02:03;;;;;;;7.25;2.60;;;28.80;99.90;;;;;;4845669;29;20049;-77
2022/07/06 10:04:30;;;;;;;5.82;2.45;;;28.90;99.90;;;;;;4845035;29;20048;-77
2022/07/06 10:06:57;;;;;;;7.32;2.65;;;29.00;99.90;;;;;;4847160;29;20179;-75
2022/07/06 10:09:26;;;;;;;13.48;2.70;;;28.90;99.90;;;;;;4846623;29;20049;-76
2022/07/06 10:11:57;;;;;;;9.45;2.70;;;28.90;99.90;;;;;;4846526;29;20049;-74
2022/07/06 10:14:27;;;;;;;7.53;2.72;;;28.80;99.90;;;;;;4841442;29;20125;-80
2022/07/06 10:16:57;;;;;;;6.55;2.50;;;28.90;99.90;;;;;;4842111;29;20046;-76
2022/07/06 10:19:25;;;;;;;7.70;2.67;;;29.00;99.90;;;;;;4848230;29;20038;-76
2022/07/06 10:21:53;;;;;;;6.43;2.47;;;29.10;99.70;;;;;;4852986;29;20863;-79
2022/07/06 10:24:20;;;;;;;5.88;2.45;;;29.30;99.70;;;;;;4853359;29;20049;-80
2022/07/06 10:26:48;;;;;;;7.13;2.90;;;29.80;99.20;;;;;;4852198;29;20049;-74
2022/07/06 10:29:14;;;;;;;5.65;2.63;;;30.20;98.60;;;;;;4852655;29;20045;-80
2022/07/06 10:31:44;;;;;;;7.65;2.53;;;30.00;98.10;;;;;;4850054;29;20053;-76
2022/07/06 10:34:12;;;;;;;7.18;2.95;;;29.60;98.50;;;;;;4846465;29;20048;-74
2022/07/06 10:36:40;;;;;;;7.45;2.90;;;29.20;99.20;;;;;;4851132;29;20605;-78
2022/07/06 10:41:52;;;;;;;8.57;3.20;;;28.80;99.50;;;;;;4849517;29;20897;-75
2022/07/06 10:44:23;;;;;;;10.60;3.10;;;28.90;99.70;;;;;;4850339;29;20064;-78
2022/07/06 10:47:00;;;;;;;7.65;2.50;;;28.50;99.40;;;;;;4848913;29;20050;-75
2022/07/06 10:49:27;;;;;;;8.02;2.45;;;28.30;99.90;;;;;;4846189;29;20966;-81
2022/07/06 10:51:56;;;;;;;10.30;2.65;;;28.30;99.90;;;;;;4850249;29;20037;-76
2022/07/06 10:54:23;;;;;;;6.35;2.55;;;27.80;99.90;;;;;;4852088;29;20117;-74
2022/07/06 10:56:52;;;;;;;8.52;3.28;;;28.00;99.90;;;;;;4854303;29;20045;-80
2022/07/06 10:59:21;;;;;;;7.45;2.92;;;28.30;99.90;;;;;;4848858;29;20124;-75
2022/07/06 11:02:16;;;;;;;11.68;2.50;;;28.40;99.80;;;;;;4845480;29;20411;-78
2022/07/06 11:04:46;;;;;;;6.03;2.70;;;28.30;99.70;;;;;;4861631;29;20125;-74
2022/07/06 11:07:19;;;;;;;8.75;2.83;;;28.30;99.90;;;;;;4851747;29;20041;-74
2022/07/06 11:10:00;;;;;;;10.27;2.75;;;28.50;99.90;;;;;;4852594;29;20130;-74
2022/07/06 11:12:26;;;;;;;8.45;2.92;;;28.20;99.90;;;;;;4865589;29;20045;-78
2022/07/06 11:14:53;;;;;;;9.82;2.97;;;28.60;99.90;;;;;;4849589;29;20389;-77
2022/07/06 11:17:19;;;;;;;11.05;3.28;;;28.60;99.90;;;;;;4840184;29;20447;-74
2022/07/06 11:20:15;;;;;;;11.57;3.60;;;28.90;99.90;;;;;;4836803;29;20049;-77
2022/07/06 11:22:43;;;;;;;12.63;3.35;;;29.10;99.90;;;;;;4854818;29;20520;-77
2022/07/06 11:25:11;;;;;;;9.90;3.88;;;28.50;99.90;;;;;;4861411;29;20133;-74
2022/07/06 11:27:38;;;;;;;15.45;3.85;;;28.40;99.90;;;;;;4844482;29;20049;-74
2022/07/06 11:30:06;;;;;;;9.35;3.70;;;28.30;99.90;;;;;;4855643;29;20548;-76
2022/07/06 11:32:35;;;;;;;9.63;3.65;;;28.40;99.90;;;;;;4856356;29;20034;-77
2022/07/06 11:35:01;;;;;;;13.23;3.60;;;28.60;99.90;;;;;;4853661;29;20084;-75
2022/07/06 11:37:27;;;;;;;12.00;4.43;;;28.40;99.90;;;;;;4854131;29;20082;-77
2022/07/06 11:39:53;;;;;;;7.10;3.58;;;28.10;99.90;;;;;;4863475;29;20109;-76
2022/07/06 11:42:19;;;;;;;9.18;3.20;;;27.80;99.90;;;;;;4851131;29;20048;-74
2022/07/06 11:44:46;;;;;;;9.00;3.10;;;27.60;99.90;;;;;;4871869;29;20034;-76
2022/07/06 11:47:14;;;;;;;12.20;3.70;;;27.10;99.90;;;;;;4852971;29;20033;-76
2022/07/06 11:49:41;;;;;;;7.82;2.80;;;26.90;99.90;;;;;;4866210;29;20037;-74
2022/07/06 11:52:09;;;;;;;12.13;3.67;;;26.80;99.90;;;;;;4856830;29;20636;-78
2022/07/06 11:54:35;;;;;;;8.80;3.10;;;26.70;99.90;;;;;;4872133;29;20037;-76
2022/07/06 11:57:03;;;;;;;11.85;3.70;;;26.70;99.90;;;;;;4864008;29;20045;-78
2022/07/06 11:59:33;;;;;;;11.25;3.95;;;26.60;99.90;;;;;;4813644;29;20045;-82
2022/07/06 12:02:14;;;;;;;11.20;3.70;;;26.60;99.90;;;;;;4850660;29;20048;-77
2022/07/06 12:04:44;;;;;;;8.90;3.38;;;26.70;99.90;;;;;;4848333;29;20081;-83
2022/07/06 12:07:16;;;;;;;9.50;3.75;;;26.80;99.90;;;;;;4850011;29;20038;-80
2022/07/06 12:09:43;;;;;;;8.75;3.63;;;26.90;99.90;;;;;;4859488;29;20146;-77
2022/07/06 12:12:11;;;;;;;11.82;3.75;;;27.00;99.90;;;;;;4852748;29;20638;-80
2022/07/06 12:14:39;;;;;;;8.93;3.22;;;27.20;99.90;;;;;;4869223;29;20041;-81
2022/07/06 12:17:06;;;;;;;11.25;3.45;;;27.20;99.90;;;;;;4866531;29;20033;-77
2022/07/06 12:19:34;;;;;;;10.00;3.40;;;27.20;99.90;;;;;;4861850;29;20068;-78
2022/07/06 12:22:01;;;;;;;9.52;3.03;;;27.20;99.90;;;;;;4871014;29;20041;-81
2022/07/06 12:24:30;;;;;;;10.35;3.10;;;27.20;99.90;;;;;;4858655;29;20068;-77
2022/07/06 12:26:57;;;;;;;10.10;3.00;;;27.10;99.90;;;;;;4857006;29;20196;-77
2022/07/06 12:29:24;;;;;;;9.85;3.45;;;27.10;99.90;;;;;;4856831;29;20041;-77
2022/07/06 12:31:52;;;;;;;8.65;3.10;;;27.00;99.90;;;;;;4860420;29;20041;-82
2022/07/06 12:34:25;;;;;;;9.02;3.72;;;26.90;99.90;;;;;;4859726;29;20050;-83
2022/07/06 12:36:57;;;;;;;15.05;3.30;;;26.80;99.90;;;;;;4863945;29;20038;-80
2022/07/06 12:39:29;;;;;;;10.32;3.05;;;26.80;99.90;;;;;;4860287;29;20098;-81
2022/07/06 12:42:01;;;;;;;6.95;3.45;;;26.80;99.90;;;;;;4865681;29;20038;-78
2022/07/06 12:44:27;;;;;;;9.95;3.25;;;26.80;99.90;;;;;;4857294;29;20090;-80
2022/07/06 12:47:05;;;;;;;9.15;3.10;;;26.80;99.90;;;;;;4864253;29;20437;-77
2022/07/06 12:49:32;;;;;;;10.63;3.40;;;26.70;99.90;;;;;;4864006;29;20120;-76